Time;durP1;ratioP1;P1;durP2;ratioP2;P2;SDS_P1;SDS_P2;PMS_P1;PMS_P2;Temp;Humidity;BMP_temperature;BMP_pressure;BME280_temperature;BME280_humidity;BME280_pressure;Samples;Min_cycle;Max_cycle;Signal;HPM_P1;HPM_P2
2022/01/28 00:00:19;;;;;;;7.07;4.55;;;;;;;8.85;71.48;102043.19;5092837;28;20396;-75
2022/01/28 00:02:59;;;;;;;7.43;5.03;;;;;;;8.83;71.41;102039.56;5091573;28;20509;-77
2022/01/28 00:05:29;;;;;;;8.68;4.75;;;;;;;8.85;71.35;102033.56;5090685;28;20495;-75
2022/01/28 00:07:57;;;;;;;3.80;2.70;;;;;;;8.86;71.07;102029.19;5090813;28;20079;-76
2022/01/28 00:10:28;;;;;;;5.22;3.47;;;;;;;8.88;70.84;102033.66;5107668;28;20044;-76
2022/01/28 00:13:18;;;;;;;8.88;5.47;;;;;;;8.88;70.55;102038.03;5090036;28;20527;-75
2022/01/28 00:15:59;;;;;;;26.70;13.90;;;;;;;8.92;70.37;102034.72;5090812;28;20093;-76
2022/01/28 00:38:08;;;;;;;4.80;3.33;;;;;;;8.89;69.33;102002.97;5056326;28;20052;-77
2022/01/28 00:40:36;;;;;;;5.45;3.58;;;;;;;8.84;69.38;102010.69;5090100;28;20032;-76
2022/01/28 00:43:06;;;;;;;7.03;3.97;;;;;;;8.80;69.17;102000.84;5089998;28;20459;-75
2022/01/28 00:45:34;;;;;;;6.97;4.55;;;;;;;8.73;69.11;101999.69;5106802;28;20060;-75
2022/01/28 00:48:01;;;;;;;13.40;10.45;;;;;;;8.68;68.90;101995.06;5074436;28;20103;-75
2022/01/28 00:50:29;;;;;;;7.78;5.45;;;;;;;8.60;69.05;101994.72;5090221;28;20523;-75
2022/01/28 00:52:57;;;;;;;10.45;7.80;;;;;;;8.53;69.02;101994.41;5089717;28;20045;-75
2022/01/28 00:55:25;;;;;;;10.02;7.65;;;;;;;8.49;68.95;101993.38;5089947;28;20150;-76
2022/01/28 00:57:53;;;;;;;11.18;8.90;;;;;;;8.44;68.97;101989.63;5089815;28;20113;-75
2022/01/28 01:00:42;;;;;;;9.63;8.45;;;;;;;8.37;68.82;101990.19;5104784;27;20040;-74
2022/01/28 01:03:10;;;;;;;7.88;5.38;;;;;;;8.32;68.95;101997.00;5091157;28;20051;-74
2022/01/28 01:05:39;;;;;;;8.95;5.20;;;;;;;8.27;68.78;101982.72;5089959;28;20036;-75
2022/01/28 01:08:07;;;;;;;17.08;9.65;;;;;;;8.23;69.09;101976.41;5106954;28;21167;-75
2022/01/28 01:10:36;;;;;;;13.48;8.77;;;;;;;8.14;69.06;101970.72;5089989;28;20039;-75
2022/01/28 01:13:06;;;;;;;14.15;8.00;;;;;;;8.13;69.01;101973.31;5090550;28;20097;-75
2022/01/28 01:15:38;;;;;;;9.15;5.65;;;;;;;8.13;68.81;101970.69;5089986;28;20047;-75
2022/01/28 01:18:13;;;;;;;10.98;6.32;;;;;;;8.10;68.69;101970.53;5090063;28;20472;-75
2022/01/28 01:21:06;;;;;;;8.05;4.93;;;;;;;8.03;68.56;101966.72;5089646;28;20483;-75
2022/01/28 01:23:36;;;;;;;5.05;3.45;;;;;;;7.93;68.64;101956.63;5089895;28;20037;-75
2022/01/28 01:26:10;;;;;;;5.70;3.78;;;;;;;7.83;69.24;101963.19;5106759;28;20056;-75
2022/01/28 01:28:41;;;;;;;8.15;4.00;;;;;;;7.78;69.24;101963.81;5106977;28;20120;-75
2022/01/28 01:31:13;;;;;;;8.25;4.97;;;;;;;7.79;69.19;101966.50;5090804;28;20127;-75
2022/01/28 01:33:47;;;;;;;6.85;4.10;;;;;;;7.77;69.33;101957.66;5091248;28;20074;-75
2022/01/28 01:36:14;;;;;;;;;;;;;;;7.74;69.42;101949.63;5090113;28;20044;-75
2022/01/28 01:38:42;;;;;;;6.78;4.07;;;;;;;7.72;69.57;101953.00;5089797;28;19920;-75
2022/01/28 01:41:14;;;;;;;6.90;3.78;;;;;;;7.63;69.54;101945.59;5090913;28;20044;-75
2022/01/28 01:43:56;;;;;;;6.85;3.95;;;;;;;7.64;69.64;101947.41;5089897;28;20033;-75
2022/01/28 01:46:35;;;;;;;7.07;3.60;;;;;;;7.63;69.84;101947.31;5090631;28;20043;-75
2022/01/28 01:52:02;;;;;;;5.93;3.95;;;;;;;7.59;70.29;101938.41;5011646;28;20053;-75
2022/01/28 01:54:31;;;;;;;4.80;3.50;;;;;;;7.51;70.20;101942.41;5076956;28;20090;-75
2022/01/28 01:57:17;;;;;;;5.03;3.45;;;;;;;7.39;70.70;101937.47;5089615;28;20048;-76
2022/01/28 01:59:44;;;;;;;6.55;3.75;;;;;;;7.34;71.09;101935.47;5073020;28;20196;-75
2022/01/28 02:02:13;;;;;;;5.88;3.90;;;;;;;7.32;71.31;101929.22;5089549;28;20036;-75
2022/01/28 02:04:42;;;;;;;6.15;3.78;;;;;;;7.31;71.14;101922.16;5093668;28;20054;-76
2022/01/28 02:07:10;;;;;;;5.15;3.63;;;;;;;7.27;71.49;101923.78;5090794;28;20101;-75
2022/01/28 02:09:38;;;;;;;5.43;3.40;;;;;;;7.20;71.53;101927.81;5072735;28;20036;-75
2022/01/28 02:12:08;;;;;;;5.55;3.95;;;;;;;7.16;71.73;101925.88;5072406;28;20040;-74
2022/01/28 02:14:35;;;;;;;6.88;3.53;;;;;;;7.11;71.88;101921.22;5091065;28;20044;-75
2022/01/28 02:17:04;;;;;;;6.65;3.67;;;;;;;7.05;71.96;101924.47;5094576;28;20555;-74
2022/01/28 02:19:32;;;;;;;6.93;4.03;;;;;;;7.06;72.20;101920.09;5109960;28;20049;-74
2022/01/28 02:22:01;;;;;;;5.40;3.67;;;;;;;7.07;72.24;101930.69;5092813;28;20068;-75
2022/01/28 02:24:34;;;;;;;6.28;3.60;;;;;;;7.08;72.41;101927.25;5076060;28;20488;-75
2022/01/28 02:27:02;;;;;;;6.28;3.42;;;;;;;7.12;72.16;101926.56;5092831;28;20113;-75
2022/01/28 02:29:31;;;;;;;5.28;3.63;;;;;;;7.05;72.26;101913.97;5092971;28;20044;-75
2022/01/28 02:32:19;;;;;;;6.15;3.78;;;;;;;6.95;72.46;101910.81;5093964;28;20093;-75
2022/01/28 02:34:47;;;;;;;5.93;3.75;;;;;;;6.87;72.49;101913.06;5092669;28;20353;-76
2022/01/28 02:37:16;;;;;;;7.07;4.20;;;;;;;6.80;72.88;101914.50;5099242;27;20047;-75
2022/01/28 02:39:44;;;;;;;7.38;4.32;;;;;;;6.81;73.11;101910.16;5092626;28;20500;-74
2022/01/28 02:42:19;;;;;;;6.32;4.38;;;;;;;6.84;73.20;101915.53;5093893;28;20040;-75
2022/01/28 02:44:50;;;;;;;8.50;4.85;;;;;;;6.84;73.01;101917.25;5092726;28;20142;-75
2022/01/28 02:47:29;;;;;;;6.38;4.07;;;;;;;6.81;72.90;101920.66;5109476;28;20360;-75
2022/01/28 02:49:57;;;;;;;7.38;4.40;;;;;;;6.78;72.76;101923.09;5092687;28;20040;-74
2022/01/28 02:53:01;;;;;;;5.93;3.92;;;;;;;6.75;72.90;101922.97;5091886;28;20494;-74
2022/01/28 02:55:30;;;;;;;6.45;3.58;;;;;;;6.73;73.00;101916.75;5093220;28;20427;-75
2022/01/28 02:58:15;;;;;;;6.90;3.88;;;;;;;6.72;73.08;101920.19;5093829;28;20032;-75
2022/01/28 03:00:43;;;;;;;6.20;3.63;;;;;;;6.71;73.04;101915.75;5085083;28;20510;-75
2022/01/28 03:03:10;;;;;;;6.68;4.43;;;;;;;6.70;73.00;101912.22;5092433;28;20052;-75
2022/01/28 03:05:38;;;;;;;9.55;6.07;;;;;;;6.69;72.96;101915.69;5093330;28;20074;-75
2022/01/28 03:08:07;;;;;;;7.10;5.18;;;;;;;6.61;72.82;101917.03;5093465;28;20169;-74
2022/01/28 03:16:13;;;;;;;7.95;4.65;;;;;;;6.48;73.09;101924.22;5093314;28;20051;-75
2022/01/28 03:18:54;;;;;;;5.65;3.72;;;;;;;6.38;73.34;101910.63;5076357;28;20032;-74
2022/01/28 03:24:13;;;;;;;6.50;3.95;;;;;;;6.38;73.62;101920.22;5084435;28;20074;-74
2022/01/28 03:26:41;;;;;;;6.28;3.83;;;;;;;6.37;73.51;101914.06;5092898;28;20476;-75
2022/01/28 03:29:08;;;;;;;6.53;4.38;;;;;;;6.41;73.38;101917.75;5092879;28;20434;-75
2022/01/28 03:31:38;;;;;;;6.88;4.70;;;;;;;6.39;73.38;101917.66;5074569;28;20040;-75
2022/01/28 03:34:08;;;;;;;7.80;4.43;;;;;;;6.38;73.28;101915.88;5075071;28;20164;-75
2022/01/28 03:36:36;;;;;;;6.93;4.32;;;;;;;6.38;73.37;101915.88;5108570;28;20044;-74
2022/01/28 03:39:07;;;;;;;6.05;4.18;;;;;;;6.35;73.57;101918.34;5092607;28;20067;-74
2022/01/28 03:41:37;;;;;;;5.65;4.10;;;;;;;6.38;73.66;101926.34;5091812;28;20055;-74
2022/01/28 03:44:25;;;;;;;7.95;4.20;;;;;;;6.38;73.75;101921.09;5076066;28;20135;-75
2022/01/28 03:46:52;;;;;;;6.13;3.80;;;;;;;6.38;73.83;101922.81;5074535;28;20048;-75
2022/01/28 03:49:23;;;;;;;6.25;3.90;;;;;;;6.36;73.75;101933.25;5092703;28;20032;-74
2022/01/28 03:51:51;;;;;;;6.45;3.88;;;;;;;6.32;73.90;101928.66;5091050;28;20074;-75
2022/01/28 03:54:18;;;;;;;7.85;4.38;;;;;;;6.31;74.06;101932.09;5092509;28;20055;-75
2022/01/28 03:56:47;;;;;;;7.53;4.93;;;;;;;6.33;73.93;101930.47;5092774;28;20123;-74
2022/01/28 03:59:15;;;;;;;6.10;4.18;;;;;;;6.34;73.89;101934.00;5092324;28;20036;-74
2022/01/28 04:01:45;;;;;;;7.53;4.05;;;;;;;6.34;73.90;101927.03;5092406;28;20113;-74
2022/01/28 04:12:29;;;;;;;10.73;6.30;;;;;;;6.30;74.28;101932.91;5084676;28;20127;-75
2022/01/28 04:15:18;;;;;;;9.63;5.27;;;;;;;6.28;74.31;101931.97;5090811;28;20036;-75
2022/01/28 04:17:46;;;;;;;7.82;4.68;;;;;;;6.31;74.44;101933.81;5091023;28;20047;-75
2022/01/28 04:20:14;;;;;;;7.40;5.28;;;;;;;6.34;74.44;101934.91;5092140;28;20097;-74
2022/01/28 04:22:42;;;;;;;8.35;5.28;;;;;;;6.35;74.31;101939.31;5090903;28;20067;-74
2022/01/28 04:25:10;;;;;;;7.85;6.20;;;;;;;6.36;74.37;101937.59;5074233;28;20048;-74
2022/01/28 04:27:39;;;;;;;6.72;5.15;;;;;;;6.38;74.28;101935.94;5090668;28;20052;-75
2022/01/28 04:30:08;;;;;;;7.50;5.55;;;;;;;6.34;74.38;101923.50;5091153;28;20230;-74
2022/01/28 04:32:37;;;;;;;10.20;5.07;;;;;;;6.30;74.45;101937.28;5092247;28;20032;-74
2022/01/28 04:35:06;;;;;;;6.65;4.32;;;;;;;6.28;74.54;101938.94;5090471;28;20063;-74
2022/01/28 04:37:42;;;;;;;6.78;4.78;;;;;;;6.27;74.69;101931.88;5073290;28;20040;-74
2022/01/28 04:40:14;;;;;;;9.90;7.50;;;;;;;6.29;74.63;101936.38;5090585;28;20047;-74
2022/01/28 04:45:38;;;;;;;9.80;6.70;;;;;;;6.30;74.66;101948.66;5083527;28;20058;-74
2022/01/28 04:48:16;;;;;;;9.02;6.45;;;;;;;6.33;74.37;101943.56;5092157;28;20143;-74
2022/01/28 04:50:55;;;;;;;9.10;6.82;;;;;;;6.38;74.24;101946.44;5090627;28;20047;-74
2022/01/28 04:53:36;;;;;;;9.05;6.80;;;;;;;6.39;74.15;101943.91;5090520;28;20479;-74
2022/01/28 04:56:16;;;;;;;8.20;6.32;;;;;;;6.40;74.18;101948.31;5092586;28;20039;-74
2022/01/28 04:58:57;;;;;;;6.45;3.67;;;;;;;6.42;74.21;101947.50;5091573;28;20048;-74
2022/01/28 05:01:50;;;;;;;8.82;4.47;;;;;;;6.37;74.28;101953.38;5091084;28;20493;-74
2022/01/28 05:04:41;;;;;;;5.72;4.13;;;;;;;6.32;74.25;101953.97;5090385;28;20093;-74
2022/01/28 05:16:14;;;;;;;10.52;8.13;;;;;;;6.35;74.25;101960.31;5050470;28;20040;-74
2022/01/28 05:26:57;;;;;;;21.55;15.48;;;;;;;6.38;73.99;101970.94;5089187;28;20126;-74
2022/01/28 05:29:25;;;;;;;27.52;21.63;;;;;;;6.42;74.04;101977.25;5090280;28;20090;-74
2022/01/28 05:31:54;;;;;;;36.63;27.20;;;;;;;6.48;73.96;101981.91;5090332;28;20075;-74
2022/01/28 05:34:25;;;;;;;36.20;31.83;;;;;;;6.50;73.85;101977.66;5091160;28;20048;-74
2022/01/28 05:36:53;;;;;;;32.28;28.75;;;;;;;6.54;73.74;101972.63;5089815;28;20040;-74
2022/01/28 05:39:21;;;;;;;26.20;22.35;;;;;;;6.58;73.68;101978.91;5091112;28;20040;-74
2022/01/28 05:41:49;;;;;;;26.35;22.27;;;;;;;6.60;73.63;101979.91;5091631;28;20086;-73
2022/01/28 05:44:18;;;;;;;28.33;21.00;;;;;;;6.63;73.82;101980.09;5090512;28;20040;-74
2022/01/28 05:46:46;;;;;;;20.95;18.35;;;;;;;6.66;73.77;101975.88;5092107;28;20479;-74
2022/01/28 05:49:16;;;;;;;20.20;16.85;;;;;;;6.75;73.80;101985.94;5092846;28;20043;-74
2022/01/28 05:51:44;;;;;;;19.70;16.33;;;;;;;6.78;73.64;101983.47;5094156;28;20044;-74
2022/01/28 05:54:11;;;;;;;17.25;12.20;;;;;;;6.83;73.48;101984.59;5095373;28;20063;-74
2022/01/28 05:56:39;;;;;;;14.65;10.90;;;;;;;6.83;73.62;101984.59;5095344;28;20044;-74
2022/01/28 05:59:06;;;;;;;21.55;14.63;;;;;;;6.83;73.71;101979.34;5093906;28;20094;-73
2022/01/28 06:01:34;;;;;;;25.67;17.98;;;;;;;6.87;73.58;101985.66;5093660;28;20044;-74
2022/01/28 06:04:02;;;;;;;36.38;28.58;;;;;;;6.86;73.65;101987.38;5076547;28;20060;-74
2022/01/28 06:06:32;;;;;;;50.90;45.17;;;;;;;6.90;73.64;101986.69;5094849;28;20089;-74
2022/01/28 06:09:00;;;;;;;55.88;48.65;;;;;;;6.97;73.60;101986.19;5094939;28;20059;-73
2022/01/28 06:11:28;;;;;;;49.15;43.80;;;;;;;7.02;73.39;101986.44;5093386;28;20111;-73
2022/01/28 06:13:55;;;;;;;52.85;46.78;;;;;;;7.28;73.71;101990.31;5093553;28;20168;-74
2022/01/28 06:16:23;;;;;;;29.17;25.98;;;;;;;7.66;73.68;101989.53;5093613;28;20098;-73
2022/01/28 06:18:51;;;;;;;27.83;24.10;;;;;;;8.07;73.80;101986.19;5093420;28;20036;-74
2022/01/28 06:21:20;;;;;;;24.10;21.60;;;;;;;8.49;73.45;101988.09;5093904;28;20063;-74
2022/01/28 06:23:56;;;;;;;24.80;21.38;;;;;;;8.84;73.39;101983.44;5092835;28;20127;-74
2022/01/28 06:26:24;;;;;;;31.95;26.83;;;;;;;9.15;73.02;101981.25;5094447;28;20036;-74
2022/01/28 06:28:53;;;;;;;40.53;32.25;;;;;;;9.53;73.13;101980.13;5076592;28;20124;-74
2022/01/28 06:31:21;;;;;;;25.02;18.67;;;;;;;9.91;72.68;101969.31;5094464;28;20048;-74
2022/01/28 06:34:09;;;;;;;18.48;12.00;;;;;;;10.23;72.26;101967.94;5096920;27;20048;-74
2022/01/28 06:36:36;;;;;;;9.63;6.88;;;;;;;10.48;71.38;101971.44;5093026;28;20093;-74
2022/01/28 06:39:06;;;;;;;16.85;12.93;;;;;;;10.73;70.41;101969.69;5093085;28;20036;-74
2022/01/28 06:41:33;;;;;;;18.13;14.13;;;;;;;11.04;70.14;101971.63;5092899;28;20044;-74
2022/01/28 06:44:01;;;;;;;27.77;24.50;;;;;;;11.32;69.67;101970.78;5092783;28;20056;-75
2022/01/28 06:46:28;;;;;;;45.60;34.00;;;;;;;11.51;68.78;101969.59;5094250;28;20089;-74
2022/01/28 06:48:56;;;;;;;19.13;14.60;;;;;;;11.55;67.99;101972.38;5093892;28;20044;-74
2022/01/28 06:51:24;;;;;;;14.98;11.77;;;;;;;11.54;68.11;101977.66;5092423;28;20403;-74
2022/01/28 06:53:51;;;;;;;11.43;7.03;;;;;;;11.60;67.44;101969.91;5092776;28;20043;-74
2022/01/28 06:56:20;;;;;;;10.07;7.00;;;;;;;11.67;66.81;101963.94;5093448;27;20043;-74
2022/01/28 06:58:55;;;;;;;34.28;24.40;;;;;;;11.83;66.51;101965.31;5093672;28;20051;-74
2022/01/28 07:01:22;;;;;;;26.70;21.15;;;;;;;12.01;66.37;101970.28;5075190;28;20032;-74
2022/01/28 07:03:50;;;;;;;13.68;11.18;;;;;;;12.18;66.14;101961.97;5094139;28;20074;-74
2022/01/28 07:06:18;;;;;;;24.08;16.75;;;;;;;12.47;65.65;101960.09;5092300;28;20175;-74
2022/01/28 07:08:46;;;;;;;20.58;14.50;;;;;;;12.70;65.22;101956.34;5092965;28;20047;-75
2022/01/28 07:11:14;;;;;;;17.13;13.85;;;;;;;12.93;64.91;101954.25;5092138;28;20123;-75
2022/01/28 07:13:43;;;;;;;27.25;20.83;;;;;;;13.11;63.60;101953.84;5092327;28;20051;-74
2022/01/28 07:16:11;;;;;;;15.60;12.10;;;;;;;13.29;62.68;101959.59;5092497;28;20039;-74
2022/01/28 07:18:39;;;;;;;3.97;2.85;;;;;;;13.43;61.54;101952.88;5075459;28;20093;-74
2022/01/28 07:21:07;;;;;;;2.88;1.70;;;;;;;13.47;59.89;101959.13;5092135;28;20040;-74
2022/01/28 07:23:34;;;;;;;6.70;4.28;;;;;;;13.57;59.45;101956.75;5092031;28;20048;-74
2022/01/28 07:26:02;;;;;;;3.33;1.60;;;;;;;13.83;58.91;101953.75;5091953;28;20036;-74
2022/01/28 07:28:31;;;;;;;3.13;1.27;;;;;;;13.99;58.49;101950.53;5092968;28;20064;-74
2022/01/28 07:31:00;;;;;;;1.45;0.90;;;;;;;14.21;58.31;101947.47;5091838;28;20512;-73
2022/01/28 07:33:27;;;;;;;3.55;1.85;;;;;;;14.33;57.86;101941.50;5093245;28;20081;-74
2022/01/28 07:35:55;;;;;;;4.50;1.58;;;;;;;14.45;57.88;101938.19;5092109;28;20040;-74
2022/01/28 07:38:24;;;;;;;3.70;2.00;;;;;;;14.58;57.28;101940.22;5092934;27;20533;-75
2022/01/28 07:40:52;;;;;;;3.22;2.38;;;;;;;14.87;56.36;101940.75;5091550;28;20116;-74
2022/01/28 07:43:19;;;;;;;3.92;1.77;;;;;;;14.80;54.81;101950.38;5075087;28;20040;-74
2022/01/28 07:45:47;;;;;;;3.00;1.92;;;;;;;14.45;55.67;101956.78;5093361;28;20044;-74
2022/01/28 07:48:17;;;;;;;3.05;2.15;;;;;;;14.69;56.14;101952.84;5091770;28;20127;-74
2022/01/28 07:50:44;;;;;;;5.05;3.15;;;;;;;14.51;56.17;101955.16;5091428;28;20131;-75
2022/01/28 07:53:16;;;;;;;6.10;3.22;;;;;;;14.35;57.12;101963.69;5092525;28;20040;-75
2022/01/28 07:55:43;;;;;;;4.80;3.08;;;;;;;13.95;56.95;101964.63;5091587;28;20052;-73
2022/01/28 07:58:11;;;;;;;5.60;3.28;;;;;;;13.57;57.69;101963.78;5095973;27;20138;-74
2022/01/28 08:00:40;;;;;;;5.35;3.13;;;;;;;13.30;58.08;101964.06;5092309;28;20050;-74
2022/01/28 08:03:08;;;;;;;8.00;4.07;;;;;;;13.07;58.26;101967.84;5090884;28;24653;-74
2022/01/28 08:05:37;;;;;;;11.52;5.03;;;;;;;12.89;58.13;101975.34;5091514;28;20036;-74
2022/01/28 08:08:21;;;;;;;6.93;3.42;;;;;;;13.27;58.43;101973.69;5091217;28;20040;-74
2022/01/28 08:10:49;;;;;;;5.40;2.60;;;;;;;13.90;58.12;101967.19;5091137;28;20040;-75
2022/01/28 08:13:17;;;;;;;7.93;4.28;;;;;;;14.44;56.87;101963.00;5096578;28;20075;-73
2022/01/28 08:15:45;;;;;;;6.88;2.92;;;;;;;14.94;57.44;101959.47;5092486;28;20043;-75
2022/01/28 08:18:13;;;;;;;4.72;2.22;;;;;;;15.41;57.12;101968.22;5057840;28;20044;-74
2022/01/28 08:20:43;;;;;;;4.20;2.25;;;;;;;15.59;56.95;101966.72;5092116;28;20040;-74
2022/01/28 08:23:11;;;;;;;5.57;3.78;;;;;;;15.93;57.61;101961.91;5089829;28;20050;-75
2022/01/28 08:25:38;;;;;;;4.57;3.17;;;;;;;16.06;55.48;101959.38;5090722;28;20044;-75
2022/01/28 08:28:06;;;;;;;5.25;3.45;;;;;;;15.93;56.32;101958.34;5091939;28;20086;-76
2022/01/28 08:30:37;;;;;;;4.50;2.85;;;;;;;15.98;54.50;101951.31;5090645;28;20112;-74
2022/01/28 08:33:06;;;;;;;3.33;1.95;;;;;;;16.08;54.50;101949.66;5090590;28;20392;-74
2022/01/28 08:35:37;;;;;;;5.63;2.65;;;;;;;15.80;53.85;101959.06;5090619;28;20412;-74
2022/01/28 08:38:14;;;;;;;5.57;3.83;;;;;;;15.98;53.80;101951.31;5090674;28;20056;-74
2022/01/28 08:40:43;;;;;;;3.20;1.90;;;;;;;16.14;52.55;101953.28;5058515;28;20032;-74
2022/01/28 08:43:10;;;;;;;3.50;2.10;;;;;;;16.43;52.46;101950.94;5090522;28;20044;-74
2022/01/28 08:45:38;;;;;;;3.60;2.00;;;;;;;16.76;52.38;101955.75;5090748;28;20052;-74
2022/01/28 08:48:06;;;;;;;2.92;1.85;;;;;;;16.93;51.71;101950.59;5092020;28;20484;-74
2022/01/28 08:50:55;;;;;;;5.45;2.45;;;;;;;17.04;51.23;101951.56;5089342;28;20051;-74
2022/01/28 08:53:24;;;;;;;4.20;2.30;;;;;;;17.28;50.39;101938.38;5107527;28;20043;-74
2022/01/28 08:55:52;;;;;;;3.75;1.92;;;;;;;17.22;49.33;101934.78;5101750;27;20040;-74
2022/01/28 08:58:20;;;;;;;2.58;1.60;;;;;;;17.12;48.30;101944.50;5106861;28;20133;-74
2022/01/28 09:00:48;;;;;;;3.97;1.70;;;;;;;17.17;48.40;101941.88;5090354;28;20063;-74
2022/01/28 09:03:17;;;;;;;2.53;1.20;;;;;;;17.45;48.19;101939.41;5090057;28;20144;-75
2022/01/28 09:05:44;;;;;;;4.22;1.63;;;;;;;17.66;48.04;101933.31;5089886;28;20440;-75
2022/01/28 09:08:12;;;;;;;2.95;1.48;;;;;;;17.80;47.03;101931.59;5091433;28;20048;-74
2022/01/28 09:10:45;;;;;;;3.55;2.10;;;;;;;17.83;46.69;101938.75;5090190;28;20039;-74
2022/01/28 09:13:24;;;;;;;2.80;1.75;;;;;;;17.66;45.88;101938.66;5090175;28;20464;-74
2022/01/28 09:15:54;;;;;;;3.20;1.80;;;;;;;17.75;46.19;101924.47;5089884;28;20044;-74
2022/01/28 09:18:22;;;;;;;4.57;2.33;;;;;;;17.56;45.92;101928.78;5091070;28;20046;-74
2022/01/28 09:20:50;;;;;;;5.47;2.55;;;;;;;17.36;45.43;101935.78;5089576;28;20495;-74
2022/01/28 09:23:20;;;;;;;3.33;1.90;;;;;;;16.97;45.17;101937.28;5089762;28;20116;-75
2022/01/28 09:25:50;;;;;;;7.90;4.70;;;;;;;16.86;45.20;101938.06;5091783;28;20040;-74
2022/01/28 09:28:18;;;;;;;4.50;2.63;;;;;;;16.42;44.69;101937.59;5089755;28;20487;-75
2022/01/28 09:30:46;;;;;;;6.97;3.17;;;;;;;16.06;45.16;101938.09;5089708;28;20055;-75
2022/01/28 09:33:14;;;;;;;7.22;3.13;;;;;;;15.76;45.23;101944.78;5091032;28;20044;-76
2022/01/28 09:35:42;;;;;;;4.80;2.88;;;;;;;15.47;45.44;101933.72;5089702;28;20044;-74
2022/01/28 09:38:10;;;;;;;5.70;3.60;;;;;;;15.30;45.80;101935.22;5091564;28;20052;-74
2022/01/28 09:40:39;;;;;;;5.57;2.95;;;;;;;15.13;46.00;101932.31;5091222;28;20537;-74
2022/01/28 09:43:09;;;;;;;7.28;3.40;;;;;;;14.86;46.47;101929.19;5089886;28;20046;-73
2022/01/28 09:45:37;;;;;;;6.88;3.70;;;;;;;14.66;46.97;101925.31;5091375;28;20032;-74
2022/01/28 09:48:06;;;;;;;7.05;3.30;;;;;;;14.65;47.52;101923.50;5089887;28;20044;-74
2022/01/28 09:50:35;;;;;;;5.90;2.92;;;;;;;15.00;47.92;101927.66;5091133;28;20033;-74
2022/01/28 09:53:04;;;;;;;3.90;2.10;;;;;;;15.42;48.26;101915.91;5091152;28;20054;-74
2022/01/28 09:55:33;;;;;;;4.32;2.08;;;;;;;15.60;48.31;101920.63;5091087;28;20044;-76
2022/01/28 09:58:02;;;;;;;3.10;1.90;;;;;;;15.88;47.68;101909.47;5090414;28;20138;-76
2022/01/28 10:00:32;;;;;;;4.65;2.05;;;;;;;16.13;47.74;101913.31;5092321;28;20109;-77
2022/01/28 10:03:06;;;;;;;3.50;1.40;;;;;;;16.34;47.50;101897.56;5089595;28;20046;-76
2022/01/28 10:05:35;;;;;;;2.28;1.33;;;;;;;16.62;47.31;101896.94;5088585;28;20064;-77
2022/01/28 10:08:24;;;;;;;2.97;1.67;;;;;;;16.51;44.58;101887.94;5089824;28;20052;-79
2022/01/28 10:10:59;;;;;;;3.70;1.75;;;;;;;16.71;45.14;101888.16;5089598;28;20090;-78
2022/01/28 10:13:33;;;;;;;3.95;2.08;;;;;;;16.88;44.62;101883.84;5090088;28;20036;-79
2022/01/28 10:16:13;;;;;;;4.25;1.65;;;;;;;16.80;42.65;101879.34;5093761;28;20047;-79
2022/01/28 10:18:45;;;;;;;3.80;1.60;;;;;;;16.91;43.36;101874.97;5091310;28;20036;-78
2022/01/28 10:21:31;;;;;;;3.92;1.50;;;;;;;17.24;43.29;101874.31;5090021;28;20419;-78
2022/01/28 10:24:08;;;;;;;3.13;1.80;;;;;;;17.43;42.76;101871.75;5091012;28;20040;-78
2022/01/28 10:26:39;;;;;;;3.13;1.70;;;;;;;17.57;42.63;101866.50;5089831;28;20036;-76
2022/01/28 10:29:30;;;;;;;2.75;1.90;;;;;;;17.43;41.93;101869.09;5085814;28;20087;-77
2022/01/28 10:32:01;;;;;;;3.05;1.70;;;;;;;17.44;41.84;101864.63;5072919;28;20059;-75
2022/01/28 10:34:31;;;;;;;3.85;1.90;;;;;;;17.41;41.51;101862.84;5085938;28;20043;-77
2022/01/28 10:37:13;;;;;;;2.90;1.58;;;;;;;17.39;40.56;101859.25;5092928;28;20042;-77
2022/01/28 10:39:50;;;;;;;1.30;0.98;;;;;;;17.48;40.50;101853.06;5093229;28;20046;-76
2022/01/28 10:42:21;;;;;;;1.77;1.42;;;;;;;17.52;40.13;101853.09;5094508;28;20075;-77
2022/01/28 10:45:09;;;;;;;2.55;1.40;;;;;;;17.58;40.60;101854.03;5092609;28;20040;-76
2022/01/28 10:47:41;;;;;;;4.97;2.00;;;;;;;17.60;40.71;101855.81;5109975;28;20111;-77
2022/01/28 10:50:22;;;;;;;6.03;4.43;;;;;;;17.68;40.38;101847.84;5076583;28;20050;-78
2022/01/28 10:52:59;;;;;;;5.47;4.22;;;;;;;17.66;40.06;101844.28;5093706;28;20093;-77
2022/01/28 10:55:27;;;;;;;5.03;3.47;;;;;;;17.66;40.09;101846.94;5092547;28;20463;-78
2022/01/28 10:57:59;;;;;;;2.78;1.63;;;;;;;17.61;39.37;101838.94;5093754;28;20059;-77
2022/01/28 11:00:29;;;;;;;2.80;1.70;;;;;;;17.72;39.45;101837.19;5092639;28;20123;-77
2022/01/28 11:03:01;;;;;;;2.65;2.15;;;;;;;17.74;39.16;101826.50;5094234;27;20075;-77
2022/01/28 11:05:30;;;;;;;6.70;4.90;;;;;;;17.71;39.68;101821.19;5091705;28;20085;-78
2022/01/28 11:07:58;;;;;;;4.28;2.58;;;;;;;17.70;39.79;101824.72;5093525;28;20048;-77
2022/01/28 11:10:26;;;;;;;2.63;1.70;;;;;;;17.37;39.21;101823.69;5075491;28;20448;-78
2022/01/28 11:12:53;;;;;;;4.75;2.63;;;;;;;16.94;38.88;101818.97;5092047;28;20040;-77
2022/01/28 11:15:22;;;;;;;3.75;1.80;;;;;;;16.63;39.02;101818.75;5092727;28;20044;-78
2022/01/28 11:17:50;;;;;;;3.55;1.85;;;;;;;16.25;39.89;101815.72;5093199;28;20036;-76
2022/01/28 11:20:45;;;;;;;6.47;3.38;;;;;;;15.71;40.35;101807.16;5089499;28;20044;-77
2022/01/28 11:23:24;;;;;;;4.90;2.13;;;;;;;15.56;40.61;101815.00;5093682;28;20046;-77
2022/01/28 11:26:05;;;;;;;8.52;4.15;;;;;;;15.35;40.85;101810.25;5091254;28;20112;-74
2022/01/28 11:28:42;;;;;;;4.72;2.60;;;;;;;15.19;41.27;101808.25;5092215;28;20036;-74
2022/01/28 11:31:42;;;;;;;2.35;1.70;;;;;;;15.03;41.52;101804.50;5092965;28;20052;-74
2022/01/28 11:34:16;;;;;;;6.47;2.85;;;;;;;14.85;42.14;101798.91;5093164;28;20063;-73
2022/01/28 11:36:50;;;;;;;4.93;2.50;;;;;;;14.75;42.75;101803.19;5092841;28;20113;-75
2022/01/28 11:39:23;;;;;;;4.22;2.17;;;;;;;14.58;43.19;101800.25;5093463;28;20043;-74
2022/01/28 11:42:09;;;;;;;5.55;2.95;;;;;;;14.45;43.54;101800.94;5091845;28;20090;-75
2022/01/28 11:44:44;;;;;;;5.43;3.08;;;;;;;14.43;43.69;101810.66;5092791;28;20107;-74
2022/01/28 11:47:21;;;;;;;6.05;3.70;;;;;;;14.45;44.13;101803.59;5091402;28;20048;-75
2022/01/28 11:49:54;;;;;;;5.50;1.88;;;;;;;14.43;44.20;101801.78;5108177;28;20044;-73
2022/01/28 11:52:27;;;;;;;4.82;2.17;;;;;;;14.44;44.15;101798.28;5092802;28;20483;-75
2022/01/28 11:54:55;;;;;;;3.72;2.08;;;;;;;14.61;44.24;101794.13;5094160;27;20051;-74
2022/01/28 11:57:26;;;;;;;3.30;1.60;;;;;;;14.82;44.29;101789.13;5090707;28;20036;-74
2022/01/28 12:00:22;;;;;;;6.97;4.00;;;;;;;14.92;43.83;101791.03;5090808;28;20381;-74
2022/01/28 12:02:51;;;;;;;4.53;3.45;;;;;;;14.92;44.07;101793.69;5091904;28;20059;-74
2022/01/28 12:06:03;;;;;;;3.15;1.92;;;;;;;14.96;44.32;101786.69;5090861;28;20051;-74
2022/01/28 12:08:34;;;;;;;2.95;1.70;;;;;;;14.98;44.58;101785.81;5089383;28;20460;-74
2022/01/28 12:11:06;;;;;;;2.53;1.45;;;;;;;15.01;44.82;101777.88;5092094;28;20048;-74
2022/01/28 12:13:53;;;;;;;3.47;1.60;;;;;;;15.01;45.01;101774.31;5092129;28;20475;-74
2022/01/28 12:16:30;;;;;;;8.13;1.50;;;;;;;14.86;45.12;101777.66;5107203;28;20484;-74
2022/01/28 12:18:59;;;;;;;3.05;1.80;;;;;;;14.80;45.31;101774.91;5090112;28;20036;-74
2022/01/28 12:21:28;;;;;;;3.97;1.67;;;;;;;14.78;45.47;101779.31;5089588;28;20044;-75
2022/01/28 12:24:34;;;;;;;2.45;1.75;;;;;;;14.68;45.06;101772.06;5090338;28;20135;-75
2022/01/28 12:27:05;;;;;;;6.40;2.80;;;;;;;14.44;45.29;101772.56;5089363;28;20055;-75
2022/01/28 12:29:35;;;;;;;5.72;2.67;;;;;;;14.30;45.52;101774.09;5090708;28;20047;-76
2022/01/28 12:32:25;;;;;;;3.50;2.20;;;;;;;14.29;45.53;101774.97;5088847;28;20039;-75
2022/01/28 12:34:56;;;;;;;3.15;1.65;;;;;;;14.29;45.57;101770.53;5091860;28;20085;-75
2022/01/28 12:37:25;;;;;;;5.93;2.53;;;;;;;14.29;45.77;101759.94;5090366;28;20101;-75
2022/01/28 12:40:02;;;;;;;2.33;1.65;;;;;;;14.27;46.08;101760.75;5091543;28;20040;-75
2022/01/28 12:42:32;;;;;;;3.67;1.63;;;;;;;14.19;46.20;101767.69;5089594;28;20039;-74
2022/01/28 12:45:02;;;;;;;2.85;1.63;;;;;;;14.20;46.19;101769.47;5073749;28;20055;-75
2022/01/28 12:47:34;;;;;;;3.13;2.03;;;;;;;14.15;46.31;101766.75;5089799;28;20068;-74